sensor_id;sensor_type;location;lat;lon;timestamp;pressure;altitude;pressure_sealevel;temperature
8227;BMP180;4154;48.810;9.012;2022-08-03T00:00:07;97236.00;;;20.40
8227;BMP180;4154;48.810;9.012;2022-08-03T00:02:33;97233.00;;;20.30
8227;BMP180;4154;48.810;9.012;2022-08-03T00:04:59;97220.00;;;20.30
8227;BMP180;4154;48.810;9.012;2022-08-03T00:07:24;97230.00;;;20.30
8227;BMP180;4154;48.810;9.012;2022-08-03T00:09:50;97233.00;;;20.30
8227;BMP180;4154;48.810;9.012;2022-08-03T00:12:16;97223.00;;;20.30
8227;BMP180;4154;48.810;9.012;2022-08-03T00:14:42;97229.00;;;20.30
8227;BMP180;4154;48.810;9.012;2022-08-03T00:17:08;97222.00;;;20.20
8227;BMP180;4154;48.810;9.012;2022-08-03T00:19:34;97225.00;;;20.20
8227;BMP180;4154;48.810;9.012;2022-08-03T00:21:59;97220.00;;;20.20
8227;BMP180;4154;48.810;9.012;2022-08-03T00:24:25;97218.00;;;20.20
8227;BMP180;4154;48.810;9.012;2022-08-03T00:26:51;97220.00;;;20.10
8227;BMP180;4154;48.810;9.012;2022-08-03T00:29:17;97219.00;;;20.10
8227;BMP180;4154;48.810;9.012;2022-08-03T00:31:42;97211.00;;;20.10
8227;BMP180;4154;48.810;9.012;2022-08-03T00:34:08;97207.00;;;20.10
8227;BMP180;4154;48.810;9.012;2022-08-03T00:36:34;97208.00;;;20.10
8227;BMP180;4154;48.810;9.012;2022-08-03T00:39:00;97214.00;;;20.00
8227;BMP180;4154;48.810;9.012;2022-08-03T00:41:26;97208.00;;;20.00
8227;BMP180;4154;48.810;9.012;2022-08-03T00:43:51;97202.00;;;19.90
8227;BMP180;4154;48.810;9.012;2022-08-03T00:46:17;97204.00;;;19.90
8227;BMP180;4154;48.810;9.012;2022-08-03T00:48:43;97212.00;;;19.80
8227;BMP180;4154;48.810;9.012;2022-08-03T00:51:09;97212.00;;;19.80
8227;BMP180;4154;48.810;9.012;2022-08-03T00:53:35;97206.00;;;19.70
8227;BMP180;4154;48.810;9.012;2022-08-03T00:56:01;97213.00;;;19.70
8227;BMP180;4154;48.810;9.012;2022-08-03T00:58:27;97212.00;;;19.70
8227;BMP180;4154;48.810;9.012;2022-08-03T01:00:53;97197.00;;;19.60
8227;BMP180;4154;48.810;9.012;2022-08-03T01:03:19;97197.00;;;19.60
8227;BMP180;4154;48.810;9.012;2022-08-03T01:08:45;97203.00;;;19.60
8227;BMP180;4154;48.810;9.012;2022-08-03T01:11:41;97199.00;;;19.60
8227;BMP180;4154;48.810;9.012;2022-08-03T01:14:23;97195.00;;;19.60
8227;BMP180;4154;48.810;9.012;2022-08-03T01:19:54;97203.00;;;19.40
8227;BMP180;4154;48.810;9.012;2022-08-03T01:22:32;97194.00;;;19.40
8227;BMP180;4154;48.810;9.012;2022-08-03T01:25:37;97184.00;;;19.40
8227;BMP180;4154;48.810;9.012;2022-08-03T01:28:24;97196.00;;;19.40
8227;BMP180;4154;48.810;9.012;2022-08-03T01:30:58;97187.00;;;19.40
8227;BMP180;4154;48.810;9.012;2022-08-03T01:33:48;97185.00;;;19.40
8227;BMP180;4154;48.810;9.012;2022-08-03T01:36:23;97185.00;;;19.30
8227;BMP180;4154;48.810;9.012;2022-08-03T01:39:03;97189.00;;;19.30
8227;BMP180;4154;48.810;9.012;2022-08-03T01:41:39;97185.00;;;19.30
8227;BMP180;4154;48.810;9.012;2022-08-03T01:44:10;97183.00;;;19.30
8227;BMP180;4154;48.810;9.012;2022-08-03T01:46:38;97164.00;;;19.20
8227;BMP180;4154;48.810;9.012;2022-08-03T01:49:10;97173.00;;;19.20
8227;BMP180;4154;48.810;9.012;2022-08-03T01:51:41;97169.00;;;19.20
8227;BMP180;4154;48.810;9.012;2022-08-03T01:54:10;97167.00;;;19.20
8227;BMP180;4154;48.810;9.012;2022-08-03T01:56:39;97168.00;;;19.20
8227;BMP180;4154;48.810;9.012;2022-08-03T01:59:07;97164.00;;;19.20
8227;BMP180;4154;48.810;9.012;2022-08-03T02:01:36;97160.00;;;19.20
8227;BMP180;4154;48.810;9.012;2022-08-03T02:04:04;97161.00;;;19.10
8227;BMP180;4154;48.810;9.012;2022-08-03T02:06:33;97158.00;;;19.10
8227;BMP180;4154;48.810;9.012;2022-08-03T02:09:01;97169.00;;;19.10
8227;BMP180;4154;48.810;9.012;2022-08-03T02:11:31;97173.00;;;19.00
8227;BMP180;4154;48.810;9.012;2022-08-03T02:14:01;97160.00;;;19.00
8227;BMP180;4154;48.810;9.012;2022-08-03T02:16:32;97166.00;;;19.00
8227;BMP180;4154;48.810;9.012;2022-08-03T02:19:01;97165.00;;;19.00
8227;BMP180;4154;48.810;9.012;2022-08-03T02:21:31;97171.00;;;19.00
8227;BMP180;4154;48.810;9.012;2022-08-03T02:23:58;97168.00;;;19.00
8227;BMP180;4154;48.810;9.012;2022-08-03T02:26:29;97170.00;;;19.00
8227;BMP180;4154;48.810;9.012;2022-08-03T02:28:59;97166.00;;;18.90
8227;BMP180;4154;48.810;9.012;2022-08-03T02:31:30;97165.00;;;18.90
8227;BMP180;4154;48.810;9.012;2022-08-03T02:34:05;97161.00;;;18.90
8227;BMP180;4154;48.810;9.012;2022-08-03T02:36:37;97172.00;;;18.80
8227;BMP180;4154;48.810;9.012;2022-08-03T02:39:06;97164.00;;;18.80
8227;BMP180;4154;48.810;9.012;2022-08-03T02:41:44;97165.00;;;18.80
8227;BMP180;4154;48.810;9.012;2022-08-03T02:44:12;97163.00;;;18.80
8227;BMP180;4154;48.810;9.012;2022-08-03T02:46:44;97163.00;;;18.70
8227;BMP180;4154;48.810;9.012;2022-08-03T02:49:13;97160.00;;;18.70
8227;BMP180;4154;48.810;9.012;2022-08-03T02:51:42;97161.00;;;18.70
8227;BMP180;4154;48.810;9.012;2022-08-03T02:54:10;97161.00;;;18.60
8227;BMP180;4154;48.810;9.012;2022-08-03T02:56:40;97159.00;;;18.70
8227;BMP180;4154;48.810;9.012;2022-08-03T02:59:08;97160.00;;;18.60
8227;BMP180;4154;48.810;9.012;2022-08-03T03:01:36;97164.00;;;18.60
8227;BMP180;4154;48.810;9.012;2022-08-03T03:04:03;97157.00;;;18.60
8227;BMP180;4154;48.810;9.012;2022-08-03T03:06:30;97146.00;;;18.50
8227;BMP180;4154;48.810;9.012;2022-08-03T03:08:56;97155.00;;;18.50
8227;BMP180;4154;48.810;9.012;2022-08-03T03:11:24;97151.00;;;18.50
8227;BMP180;4154;48.810;9.012;2022-08-03T03:13:51;97150.00;;;18.50
8227;BMP180;4154;48.810;9.012;2022-08-03T03:16:18;97152.00;;;18.50
8227;BMP180;4154;48.810;9.012;2022-08-03T03:18:46;97160.00;;;18.50
8227;BMP180;4154;48.810;9.012;2022-08-03T03:21:17;97156.00;;;18.50
8227;BMP180;4154;48.810;9.012;2022-08-03T03:23:45;97159.00;;;18.50
8227;BMP180;4154;48.810;9.012;2022-08-03T03:26:13;97155.00;;;18.50
8227;BMP180;4154;48.810;9.012;2022-08-03T03:28:40;97153.00;;;18.40
8227;BMP180;4154;48.810;9.012;2022-08-03T03:31:08;97145.00;;;18.40
8227;BMP180;4154;48.810;9.012;2022-08-03T03:33:35;97145.00;;;18.40
8227;BMP180;4154;48.810;9.012;2022-08-03T03:36:03;97149.00;;;18.40
8227;BMP180;4154;48.810;9.012;2022-08-03T03:38:29;97145.00;;;18.40
8227;BMP180;4154;48.810;9.012;2022-08-03T03:40:56;97147.00;;;18.40
8227;BMP180;4154;48.810;9.012;2022-08-03T03:43:23;97140.00;;;18.30
8227;BMP180;4154;48.810;9.012;2022-08-03T03:45:50;97147.00;;;18.30
8227;BMP180;4154;48.810;9.012;2022-08-03T03:48:18;97145.00;;;18.30
8227;BMP180;4154;48.810;9.012;2022-08-03T03:50:45;97144.00;;;18.30
8227;BMP180;4154;48.810;9.012;2022-08-03T03:53:12;97141.00;;;18.30
8227;BMP180;4154;48.810;9.012;2022-08-03T03:55:39;97147.00;;;18.20
8227;BMP180;4154;48.810;9.012;2022-08-03T03:58:06;97145.00;;;18.20
8227;BMP180;4154;48.810;9.012;2022-08-03T04:00:33;97151.00;;;18.30
8227;BMP180;4154;48.810;9.012;2022-08-03T04:02:59;97148.00;;;18.20
8227;BMP180;4154;48.810;9.012;2022-08-03T04:05:25;97146.00;;;18.20
8227;BMP180;4154;48.810;9.012;2022-08-03T04:08:17;97152.00;;;18.20
8227;BMP180;4154;48.810;9.012;2022-08-03T04:11:21;97144.00;;;18.20
8227;BMP180;4154;48.810;9.012;2022-08-03T04:14:05;97139.00;;;18.20
8227;BMP180;4154;48.810;9.012;2022-08-03T04:16:40;97149.00;;;18.20
8227;BMP180;4154;48.810;9.012;2022-08-03T04:19:17;97151.00;;;18.20
8227;BMP180;4154;48.810;9.012;2022-08-03T04:21:49;97155.00;;;18.20
8227;BMP180;4154;48.810;9.012;2022-08-03T04:24:18;97159.00;;;18.10
8227;BMP180;4154;48.810;9.012;2022-08-03T04:26:47;97152.00;;;18.10
8227;BMP180;4154;48.810;9.012;2022-08-03T04:29:14;97158.00;;;18.10
8227;BMP180;4154;48.810;9.012;2022-08-03T04:31:42;97160.00;;;18.10
8227;BMP180;4154;48.810;9.012;2022-08-03T04:34:08;97164.00;;;18.10
8227;BMP180;4154;48.810;9.012;2022-08-03T04:36:52;97157.00;;;18.10
8227;BMP180;4154;48.810;9.012;2022-08-03T04:39:29;97161.00;;;18.10
8227;BMP180;4154;48.810;9.012;2022-08-03T04:42:00;97168.00;;;18.10
8227;BMP180;4154;48.810;9.012;2022-08-03T04:44:28;97164.00;;;18.10
8227;BMP180;4154;48.810;9.012;2022-08-03T04:46:56;97174.00;;;18.10
8227;BMP180;4154;48.810;9.012;2022-08-03T04:49:24;97174.00;;;18.10
8227;BMP180;4154;48.810;9.012;2022-08-03T04:51:51;97175.00;;;18.10
8227;BMP180;4154;48.810;9.012;2022-08-03T04:54:17;97171.00;;;18.10
8227;BMP180;4154;48.810;9.012;2022-08-03T04:56:43;97171.00;;;18.10
8227;BMP180;4154;48.810;9.012;2022-08-03T04:59:10;97170.00;;;18.10
8227;BMP180;4154;48.810;9.012;2022-08-03T05:01:36;97173.00;;;18.10
8227;BMP180;4154;48.810;9.012;2022-08-03T05:04:02;97180.00;;;18.20
8227;BMP180;4154;48.810;9.012;2022-08-03T05:06:28;97169.00;;;18.20
8227;BMP180;4154;48.810;9.012;2022-08-03T05:08:54;97168.00;;;18.20
8227;BMP180;4154;48.810;9.012;2022-08-03T05:11:20;97182.00;;;18.20
8227;BMP180;4154;48.810;9.012;2022-08-03T05:13:46;97168.00;;;18.20
8227;BMP180;4154;48.810;9.012;2022-08-03T05:16:13;97171.00;;;18.20
8227;BMP180;4154;48.810;9.012;2022-08-03T05:18:40;97174.00;;;18.30
8227;BMP180;4154;48.810;9.012;2022-08-03T05:21:08;97179.00;;;18.30
8227;BMP180;4154;48.810;9.012;2022-08-03T05:23:35;97176.00;;;18.40
8227;BMP180;4154;48.810;9.012;2022-08-03T05:26:03;97187.00;;;18.40
8227;BMP180;4154;48.810;9.012;2022-08-03T05:28:28;97177.00;;;18.40
8227;BMP180;4154;48.810;9.012;2022-08-03T05:30:54;97177.00;;;18.40
8227;BMP180;4154;48.810;9.012;2022-08-03T05:33:20;97183.00;;;18.50
8227;BMP180;4154;48.810;9.012;2022-08-03T05:35:46;97184.00;;;18.50
8227;BMP180;4154;48.810;9.012;2022-08-03T05:38:11;97181.00;;;18.60
8227;BMP180;4154;48.810;9.012;2022-08-03T05:40:37;97177.00;;;18.60
8227;BMP180;4154;48.810;9.012;2022-08-03T05:43:03;97183.00;;;18.70
8227;BMP180;4154;48.810;9.012;2022-08-03T05:45:29;97183.00;;;18.70
8227;BMP180;4154;48.810;9.012;2022-08-03T05:47:55;97179.00;;;18.70
8227;BMP180;4154;48.810;9.012;2022-08-03T05:50:21;97186.00;;;18.80
8227;BMP180;4154;48.810;9.012;2022-08-03T05:52:47;97183.00;;;18.80
8227;BMP180;4154;48.810;9.012;2022-08-03T05:55:13;97183.00;;;18.90
8227;BMP180;4154;48.810;9.012;2022-08-03T05:57:40;97184.00;;;18.90
8227;BMP180;4154;48.810;9.012;2022-08-03T06:00:10;97180.00;;;19.00
8227;BMP180;4154;48.810;9.012;2022-08-03T06:02:37;97184.00;;;19.00
8227;BMP180;4154;48.810;9.012;2022-08-03T06:05:04;97178.00;;;19.00
8227;BMP180;4154;48.810;9.012;2022-08-03T06:07:29;97185.00;;;19.10
8227;BMP180;4154;48.810;9.012;2022-08-03T06:09:56;97177.00;;;19.20
8227;BMP180;4154;48.810;9.012;2022-08-03T06:12:22;97182.00;;;19.20
8227;BMP180;4154;48.810;9.012;2022-08-03T06:14:47;97190.00;;;19.30
8227;BMP180;4154;48.810;9.012;2022-08-03T06:17:13;97190.00;;;19.40
8227;BMP180;4154;48.810;9.012;2022-08-03T06:19:39;97185.00;;;19.40
8227;BMP180;4154;48.810;9.012;2022-08-03T06:22:05;97183.00;;;19.50
8227;BMP180;4154;48.810;9.012;2022-08-03T06:24:31;97189.00;;;19.60
8227;BMP180;4154;48.810;9.012;2022-08-03T06:26:57;97175.00;;;19.70
8227;BMP180;4154;48.810;9.012;2022-08-03T06:29:23;97185.00;;;19.80
8227;BMP180;4154;48.810;9.012;2022-08-03T06:31:49;97176.00;;;19.90
8227;BMP180;4154;48.810;9.012;2022-08-03T06:34:15;97186.00;;;19.90
8227;BMP180;4154;48.810;9.012;2022-08-03T06:36:41;97179.00;;;20.00
8227;BMP180;4154;48.810;9.012;2022-08-03T06:39:07;97185.00;;;20.10
8227;BMP180;4154;48.810;9.012;2022-08-03T06:41:33;97183.00;;;20.20
8227;BMP180;4154;48.810;9.012;2022-08-03T06:43:59;97178.00;;;20.30
8227;BMP180;4154;48.810;9.012;2022-08-03T06:46:25;97181.00;;;20.30
8227;BMP180;4154;48.810;9.012;2022-08-03T06:48:51;97182.00;;;20.40
8227;BMP180;4154;48.810;9.012;2022-08-03T06:51:16;97177.00;;;20.50
8227;BMP180;4154;48.810;9.012;2022-08-03T06:53:42;97192.00;;;20.60
8227;BMP180;4154;48.810;9.012;2022-08-03T06:56:08;97187.00;;;20.70
8227;BMP180;4154;48.810;9.012;2022-08-03T06:58:34;97189.00;;;20.80
8227;BMP180;4154;48.810;9.012;2022-08-03T07:01:00;97185.00;;;20.90
8227;BMP180;4154;48.810;9.012;2022-08-03T07:03:26;97192.00;;;21.00
8227;BMP180;4154;48.810;9.012;2022-08-03T07:05:51;97203.00;;;21.10
8227;BMP180;4154;48.810;9.012;2022-08-03T07:08:17;97197.00;;;21.20
8227;BMP180;4154;48.810;9.012;2022-08-03T07:10:44;97200.00;;;21.30
8227;BMP180;4154;48.810;9.012;2022-08-03T07:13:11;97195.00;;;21.40
8227;BMP180;4154;48.810;9.012;2022-08-03T07:15:36;97193.00;;;21.50
8227;BMP180;4154;48.810;9.012;2022-08-03T07:18:03;97200.00;;;21.60
8227;BMP180;4154;48.810;9.012;2022-08-03T07:20:29;97191.00;;;21.70
8227;BMP180;4154;48.810;9.012;2022-08-03T07:22:55;97194.00;;;21.80
8227;BMP180;4154;48.810;9.012;2022-08-03T07:25:21;97198.00;;;21.90
8227;BMP180;4154;48.810;9.012;2022-08-03T07:27:47;97191.00;;;22.00
8227;BMP180;4154;48.810;9.012;2022-08-03T07:30:15;97190.00;;;22.10
8227;BMP180;4154;48.810;9.012;2022-08-03T07:32:41;97200.00;;;22.20
8227;BMP180;4154;48.810;9.012;2022-08-03T07:35:09;97199.00;;;22.30
8227;BMP180;4154;48.810;9.012;2022-08-03T07:37:35;97195.00;;;22.40
8227;BMP180;4154;48.810;9.012;2022-08-03T07:40:03;97191.00;;;22.50
8227;BMP180;4154;48.810;9.012;2022-08-03T07:42:30;97192.00;;;22.70
8227;BMP180;4154;48.810;9.012;2022-08-03T07:44:57;97199.00;;;22.80
8227;BMP180;4154;48.810;9.012;2022-08-03T07:47:26;97204.00;;;22.90
8227;BMP180;4154;48.810;9.012;2022-08-03T07:49:54;97197.00;;;23.00
8227;BMP180;4154;48.810;9.012;2022-08-03T07:52:20;97207.00;;;23.10
8227;BMP180;4154;48.810;9.012;2022-08-03T07:55:06;97196.00;;;23.20
8227;BMP180;4154;48.810;9.012;2022-08-03T07:57:33;97200.00;;;23.30
8227;BMP180;4154;48.810;9.012;2022-08-03T07:59:59;97188.00;;;23.40
8227;BMP180;4154;48.810;9.012;2022-08-03T08:02:25;97192.00;;;23.50
8227;BMP180;4154;48.810;9.012;2022-08-03T08:04:51;97196.00;;;23.60
8227;BMP180;4154;48.810;9.012;2022-08-03T08:07:17;97198.00;;;23.60
8227;BMP180;4154;48.810;9.012;2022-08-03T08:09:43;97183.00;;;23.70
8227;BMP180;4154;48.810;9.012;2022-08-03T08:12:09;97190.00;;;23.80
8227;BMP180;4154;48.810;9.012;2022-08-03T08:14:37;97183.00;;;23.90
8227;BMP180;4154;48.810;9.012;2022-08-03T08:17:04;97182.00;;;24.00
8227;BMP180;4154;48.810;9.012;2022-08-03T08:19:29;97184.00;;;24.00
8227;BMP180;4154;48.810;9.012;2022-08-03T08:21:55;97185.00;;;24.10
8227;BMP180;4154;48.810;9.012;2022-08-03T08:24:21;97179.00;;;24.20
8227;BMP180;4154;48.810;9.012;2022-08-03T08:26:47;97180.00;;;24.20
8227;BMP180;4154;48.810;9.012;2022-08-03T08:29:12;97171.00;;;24.40
8227;BMP180;4154;48.810;9.012;2022-08-03T08:31:38;97182.00;;;24.50
8227;BMP180;4154;48.810;9.012;2022-08-03T08:34:04;97184.00;;;24.60
8227;BMP180;4154;48.810;9.012;2022-08-03T08:36:32;97189.00;;;24.70
8227;BMP180;4154;48.810;9.012;2022-08-03T08:38:58;97177.00;;;24.80
8227;BMP180;4154;48.810;9.012;2022-08-03T08:41:24;97181.00;;;24.90
8227;BMP180;4154;48.810;9.012;2022-08-03T08:43:50;97173.00;;;25.00
8227;BMP180;4154;48.810;9.012;2022-08-03T08:46:18;97180.00;;;25.10
8227;BMP180;4154;48.810;9.012;2022-08-03T08:48:45;97169.00;;;25.10
8227;BMP180;4154;48.810;9.012;2022-08-03T08:51:13;97181.00;;;25.10
8227;BMP180;4154;48.810;9.012;2022-08-03T08:53:44;97181.00;;;25.30
8227;BMP180;4154;48.810;9.012;2022-08-03T08:56:13;97184.00;;;25.40
8227;BMP180;4154;48.810;9.012;2022-08-03T08:58:47;97179.00;;;25.50
8227;BMP180;4154;48.810;9.012;2022-08-03T09:01:13;97183.00;;;25.50
8227;BMP180;4154;48.810;9.012;2022-08-03T09:03:42;97186.00;;;25.50
8227;BMP180;4154;48.810;9.012;2022-08-03T09:06:07;97182.00;;;25.60
8227;BMP180;4154;48.810;9.012;2022-08-03T09:08:33;97185.00;;;25.70
8227;BMP180;4154;48.810;9.012;2022-08-03T09:11:01;97176.00;;;25.70
8227;BMP180;4154;48.810;9.012;2022-08-03T09:13:26;97181.00;;;25.80
8227;BMP180;4154;48.810;9.012;2022-08-03T09:16:20;97178.00;;;25.90
8227;BMP180;4154;48.810;9.012;2022-08-03T09:18:52;97192.00;;;26.00
8227;BMP180;4154;48.810;9.012;2022-08-03T09:21:27;97179.00;;;26.00
8227;BMP180;4154;48.810;9.012;2022-08-03T09:23:57;97180.00;;;26.10
8227;BMP180;4154;48.810;9.012;2022-08-03T09:26:29;97182.00;;;26.10
8227;BMP180;4154;48.810;9.012;2022-08-03T09:29:05;97184.00;;;26.20
8227;BMP180;4154;48.810;9.012;2022-08-03T09:31:38;97182.00;;;26.30
8227;BMP180;4154;48.810;9.012;2022-08-03T09:34:09;97181.00;;;26.30
8227;BMP180;4154;48.810;9.012;2022-08-03T09:36:45;97177.00;;;26.40
8227;BMP180;4154;48.810;9.012;2022-08-03T09:39:16;97184.00;;;26.50
8227;BMP180;4154;48.810;9.012;2022-08-03T09:41:46;97182.00;;;26.50
8227;BMP180;4154;48.810;9.012;2022-08-03T09:44:13;97183.00;;;26.60
8227;BMP180;4154;48.810;9.012;2022-08-03T09:46:51;97173.00;;;26.60
8227;BMP180;4154;48.810;9.012;2022-08-03T09:49:18;97177.00;;;26.60
8227;BMP180;4154;48.810;9.012;2022-08-03T09:51:44;97175.00;;;26.60
8227;BMP180;4154;48.810;9.012;2022-08-03T09:54:10;97178.00;;;26.60
8227;BMP180;4154;48.810;9.012;2022-08-03T09:56:46;97174.00;;;26.60
8227;BMP180;4154;48.810;9.012;2022-08-03T09:59:26;97172.00;;;26.70
8227;BMP180;4154;48.810;9.012;2022-08-03T10:01:53;97169.00;;;26.80
8227;BMP180;4154;48.810;9.012;2022-08-03T10:04:19;97176.00;;;26.90
8227;BMP180;4154;48.810;9.012;2022-08-03T10:09:30;97172.00;;;27.00
8227;BMP180;4154;48.810;9.012;2022-08-03T10:11:57;97168.00;;;27.10
8227;BMP180;4154;48.810;9.012;2022-08-03T10:14:31;97168.00;;;27.10
8227;BMP180;4154;48.810;9.012;2022-08-03T10:16:57;97163.00;;;27.20
8227;BMP180;4154;48.810;9.012;2022-08-03T10:19:23;97166.00;;;27.20
8227;BMP180;4154;48.810;9.012;2022-08-03T10:21:56;97163.00;;;27.30
8227;BMP180;4154;48.810;9.012;2022-08-03T10:24:28;97156.00;;;27.40
8227;BMP180;4154;48.810;9.012;2022-08-03T10:27:07;97159.00;;;27.50
8227;BMP180;4154;48.810;9.012;2022-08-03T10:29:38;97162.00;;;27.70
8227;BMP180;4154;48.810;9.012;2022-08-03T10:32:18;97163.00;;;27.80
8227;BMP180;4154;48.810;9.012;2022-08-03T10:34:50;97155.00;;;27.80
8227;BMP180;4154;48.810;9.012;2022-08-03T10:37:17;97153.00;;;27.90
8227;BMP180;4154;48.810;9.012;2022-08-03T10:39:44;97144.00;;;27.90
8227;BMP180;4154;48.810;9.012;2022-08-03T10:42:23;97140.00;;;28.00
8227;BMP180;4154;48.810;9.012;2022-08-03T10:45:02;97147.00;;;28.10
8227;BMP180;4154;48.810;9.012;2022-08-03T10:47:29;97149.00;;;28.20
8227;BMP180;4154;48.810;9.012;2022-08-03T10:49:56;97145.00;;;28.20
8227;BMP180;4154;48.810;9.012;2022-08-03T10:52:22;97146.00;;;28.50
8227;BMP180;4154;48.810;9.012;2022-08-03T10:54:49;97146.00;;;28.50
8227;BMP180;4154;48.810;9.012;2022-08-03T10:57:51;97146.00;;;28.60
8227;BMP180;4154;48.810;9.012;2022-08-03T11:00:22;97141.00;;;28.70
8227;BMP180;4154;48.810;9.012;2022-08-03T11:03:11;97133.00;;;28.70
8227;BMP180;4154;48.810;9.012;2022-08-03T11:05:47;97142.00;;;28.70
8227;BMP180;4154;48.810;9.012;2022-08-03T11:08:26;97138.00;;;28.70
8227;BMP180;4154;48.810;9.012;2022-08-03T11:10:56;97140.00;;;28.80
8227;BMP180;4154;48.810;9.012;2022-08-03T11:13:25;97135.00;;;28.80
8227;BMP180;4154;48.810;9.012;2022-08-03T11:15:56;97141.00;;;28.90
8227;BMP180;4154;48.810;9.012;2022-08-03T11:18:23;97137.00;;;29.00
8227;BMP180;4154;48.810;9.012;2022-08-03T11:20:55;97131.00;;;29.20
8227;BMP180;4154;48.810;9.012;2022-08-03T11:23:47;97125.00;;;29.20
8227;BMP180;4154;48.810;9.012;2022-08-03T11:26:19;97126.00;;;29.30
8227;BMP180;4154;48.810;9.012;2022-08-03T11:28:48;97125.00;;;29.30
8227;BMP180;4154;48.810;9.012;2022-08-03T11:34:13;97116.00;;;29.50
8227;BMP180;4154;48.810;9.012;2022-08-03T11:37:23;97124.00;;;29.50
8227;BMP180;4154;48.810;9.012;2022-08-03T11:39:52;97109.00;;;29.60
8227;BMP180;4154;48.810;9.012;2022-08-03T11:44:59;97123.00;;;29.80
8227;BMP180;4154;48.810;9.012;2022-08-03T11:47:29;97118.00;;;29.90
8227;BMP180;4154;48.810;9.012;2022-08-03T11:49:58;97123.00;;;30.00
8227;BMP180;4154;48.810;9.012;2022-08-03T11:52:33;97112.00;;;30.10
8227;BMP180;4154;48.810;9.012;2022-08-03T11:54:59;97119.00;;;30.10
8227;BMP180;4154;48.810;9.012;2022-08-03T11:57:30;97119.00;;;30.20
8227;BMP180;4154;48.810;9.012;2022-08-03T11:59:56;97117.00;;;30.20
8227;BMP180;4154;48.810;9.012;2022-08-03T12:02:22;97107.00;;;30.30
8227;BMP180;4154;48.810;9.012;2022-08-03T12:04:58;97113.00;;;30.30
8227;BMP180;4154;48.810;9.012;2022-08-03T12:07:29;97117.00;;;30.50
8227;BMP180;4154;48.810;9.012;2022-08-03T12:10:15;97109.00;;;30.50
8227;BMP180;4154;48.810;9.012;2022-08-03T12:12:41;97102.00;;;30.50
8227;BMP180;4154;48.810;9.012;2022-08-03T12:15:08;97107.00;;;30.50
8227;BMP180;4154;48.810;9.012;2022-08-03T12:17:36;97117.00;;;30.50
8227;BMP180;4154;48.810;9.012;2022-08-03T12:20:06;97112.00;;;30.50
8227;BMP180;4154;48.810;9.012;2022-08-03T12:22:37;97110.00;;;30.60
8227;BMP180;4154;48.810;9.012;2022-08-03T12:25:06;97107.00;;;30.60
8227;BMP180;4154;48.810;9.012;2022-08-03T12:27:32;97102.00;;;30.70
8227;BMP180;4154;48.810;9.012;2022-08-03T12:29:59;97103.00;;;30.70
8227;BMP180;4154;48.810;9.012;2022-08-03T12:32:29;97097.00;;;30.80
8227;BMP180;4154;48.810;9.012;2022-08-03T12:34:57;97092.00;;;30.90
8227;BMP180;4154;48.810;9.012;2022-08-03T12:37:26;97093.00;;;30.90
8227;BMP180;4154;48.810;9.012;2022-08-03T12:39:56;97097.00;;;31.10
8227;BMP180;4154;48.810;9.012;2022-08-03T12:42:33;97096.00;;;31.10
8227;BMP180;4154;48.810;9.012;2022-08-03T12:44:59;97092.00;;;31.10
8227;BMP180;4154;48.810;9.012;2022-08-03T12:47:25;97100.00;;;31.10
8227;BMP180;4154;48.810;9.012;2022-08-03T12:49:52;97089.00;;;31.10
8227;BMP180;4154;48.810;9.012;2022-08-03T12:52:21;97082.00;;;31.10
8227;BMP180;4154;48.810;9.012;2022-08-03T12:54:59;97091.00;;;31.10
8227;BMP180;4154;48.810;9.012;2022-08-03T12:57:39;97088.00;;;31.30
8227;BMP180;4154;48.810;9.012;2022-08-03T13:00:14;97087.00;;;31.20
8227;BMP180;4154;48.810;9.012;2022-08-03T13:02:40;97082.00;;;31.30
8227;BMP180;4154;48.810;9.012;2022-08-03T13:05:13;97091.00;;;31.40
8227;BMP180;4154;48.810;9.012;2022-08-03T13:07:43;97083.00;;;31.40
8227;BMP180;4154;48.810;9.012;2022-08-03T13:10:11;97089.00;;;31.50
8227;BMP180;4154;48.810;9.012;2022-08-03T13:12:48;97085.00;;;31.50
8227;BMP180;4154;48.810;9.012;2022-08-03T13:15:15;97078.00;;;31.60
8227;BMP180;4154;48.810;9.012;2022-08-03T13:17:41;97078.00;;;31.80
8227;BMP180;4154;48.810;9.012;2022-08-03T13:20:07;97074.00;;;31.80
8227;BMP180;4154;48.810;9.012;2022-08-03T13:22:33;97081.00;;;31.80
8227;BMP180;4154;48.810;9.012;2022-08-03T13:25:01;97079.00;;;31.80
8227;BMP180;4154;48.810;9.012;2022-08-03T13:27:28;97076.00;;;31.90
8227;BMP180;4154;48.810;9.012;2022-08-03T13:29:55;97073.00;;;31.90
8227;BMP180;4154;48.810;9.012;2022-08-03T13:32:22;97074.00;;;31.90
8227;BMP180;4154;48.810;9.012;2022-08-03T13:34:48;97067.00;;;32.00
8227;BMP180;4154;48.810;9.012;2022-08-03T13:37:14;97063.00;;;32.00
8227;BMP180;4154;48.810;9.012;2022-08-03T13:39:42;97067.00;;;32.20
8227;BMP180;4154;48.810;9.012;2022-08-03T13:42:08;97070.00;;;32.20
8227;BMP180;4154;48.810;9.012;2022-08-03T13:44:34;97068.00;;;32.20
8227;BMP180;4154;48.810;9.012;2022-08-03T13:47:04;97073.00;;;32.30
8227;BMP180;4154;48.810;9.012;2022-08-03T13:49:30;97063.00;;;32.30
8227;BMP180;4154;48.810;9.012;2022-08-03T13:51:56;97064.00;;;32.20
8227;BMP180;4154;48.810;9.012;2022-08-03T13:54:22;97064.00;;;32.30
8227;BMP180;4154;48.810;9.012;2022-08-03T13:56:49;97061.00;;;32.30
8227;BMP180;4154;48.810;9.012;2022-08-03T13:59:20;97057.00;;;32.40
8227;BMP180;4154;48.810;9.012;2022-08-03T14:01:48;97055.00;;;32.40
8227;BMP180;4154;48.810;9.012;2022-08-03T14:04:14;97046.00;;;32.40
8227;BMP180;4154;48.810;9.012;2022-08-03T14:06:41;97042.00;;;32.40
8227;BMP180;4154;48.810;9.012;2022-08-03T14:09:12;97040.00;;;32.40
8227;BMP180;4154;48.810;9.012;2022-08-03T14:11:39;97042.00;;;32.40
8227;BMP180;4154;48.810;9.012;2022-08-03T14:14:05;97042.00;;;32.40
8227;BMP180;4154;48.810;9.012;2022-08-03T14:16:31;97042.00;;;32.40
8227;BMP180;4154;48.810;9.012;2022-08-03T14:18:57;97040.00;;;32.50
8227;BMP180;4154;48.810;9.012;2022-08-03T14:21:23;97033.00;;;32.50
8227;BMP180;4154;48.810;9.012;2022-08-03T14:23:49;97036.00;;;32.50
8227;BMP180;4154;48.810;9.012;2022-08-03T14:26:14;97032.00;;;32.40
8227;BMP180;4154;48.810;9.012;2022-08-03T14:28:42;97045.00;;;32.40
8227;BMP180;4154;48.810;9.012;2022-08-03T14:31:08;97044.00;;;32.40
8227;BMP180;4154;48.810;9.012;2022-08-03T14:33:34;97036.00;;;32.30
8227;BMP180;4154;48.810;9.012;2022-08-03T14:36:00;97044.00;;;32.30
8227;BMP180;4154;48.810;9.012;2022-08-03T14:38:26;97034.00;;;32.30
8227;BMP180;4154;48.810;9.012;2022-08-03T14:40:52;97032.00;;;32.30
8227;BMP180;4154;48.810;9.012;2022-08-03T14:43:18;97031.00;;;32.20
8227;BMP180;4154;48.810;9.012;2022-08-03T14:45:48;97037.00;;;32.30
8227;BMP180;4154;48.810;9.012;2022-08-03T14:48:22;97039.00;;;32.30
8227;BMP180;4154;48.810;9.012;2022-08-03T14:50:49;97035.00;;;32.40
8227;BMP180;4154;48.810;9.012;2022-08-03T14:53:17;97036.00;;;32.40
8227;BMP180;4154;48.810;9.012;2022-08-03T14:55:44;97028.00;;;32.50
8227;BMP180;4154;48.810;9.012;2022-08-03T14:58:10;97026.00;;;32.50